createdAt,value
2018-08-08T00:00:04.551Z,35.11
2018-08-08T00:00:46.512Z,35.11
2018-08-08T00:01:27.793Z,34.72
2018-08-08T00:02:08.979Z,35.01
2018-08-08T00:02:50.295Z,35.11
2018-08-08T00:03:31.416Z,35.59
2018-08-08T00:04:12.649Z,35.69
2018-08-08T00:04:54.028Z,35.49
2018-08-08T00:05:35.318Z,35.21
2018-08-08T00:06:17.266Z,35.59
2018-08-08T00:06:58.493Z,35.4
2018-08-08T00:07:39.658Z,35.49
2018-08-08T00:08:21.004Z,35.49
2018-08-08T00:09:03.282Z,35.59
2018-08-08T00:09:44.670Z,35.78
2018-08-08T00:10:26.753Z,35.3
2018-08-08T00:11:08.040Z,35.4
2018-08-08T00:11:50.226Z,35.49
2018-08-08T00:12:31.537Z,35.49
2018-08-08T00:13:13.446Z,35.4
2018-08-08T00:13:56.149Z,35.78
2018-08-08T00:14:38.248Z,35.59
2018-08-08T00:15:20.501Z,35.59
2018-08-08T00:16:01.662Z,35.49
2018-08-08T00:16:42.918Z,35.59
2018-08-08T00:17:24.351Z,35.4
2018-08-08T00:18:05.666Z,35.69
2018-08-08T00:18:46.829Z,35.69
2018-08-08T00:19:27.984Z,35.69
2018-08-08T00:20:09.258Z,35.77
2018-08-08T00:20:50.635Z,35.88
2018-08-08T00:21:31.829Z,36.08
2018-08-08T00:22:13.063Z,36.18
2018-08-08T00:22:54.328Z,36.16
2018-08-08T00:23:35.499Z,36.56
2018-08-08T00:24:16.734Z,36.08
2018-08-08T00:24:58.743Z,36.27
2018-08-08T00:25:39.956Z,36.36
2018-08-08T00:26:21.253Z,35.78
2018-08-08T00:27:02.492Z,35.69
2018-08-08T00:27:45.495Z,35.96
2018-08-08T00:28:26.803Z,36.27
2018-08-08T00:29:08.063Z,36.18
2018-08-08T00:29:49.296Z,35.78
2018-08-08T00:30:30.545Z,35.57
2018-08-08T00:31:12.543Z,36.56
2018-08-08T00:31:55.247Z,35.77
2018-08-08T00:32:37.498Z,35.88
2018-08-08T00:33:19.493Z,35.69
2018-08-08T00:34:01.736Z,36.36
2018-08-08T00:34:43.060Z,36.25
2018-08-08T00:35:24.329Z,36.46
2018-08-08T00:36:05.604Z,35.96
2018-08-08T00:36:46.947Z,36.64
2018-08-08T00:37:29.892Z,36.25
2018-08-08T00:38:12.513Z,36.35
2018-08-08T00:38:54.799Z,36.16
2018-08-08T00:39:36.097Z,36.25
2018-08-08T00:40:18.022Z,36.64
2018-08-08T00:40:59.335Z,36.16
2018-08-08T00:41:42.044Z,36.16
2018-08-08T00:42:23.431Z,36.16
2018-08-08T00:43:04.684Z,36.16
2018-08-08T00:43:47.424Z,36.16
2018-08-08T00:44:30.528Z,36.25
2018-08-08T00:45:11.835Z,36.44
2018-08-08T00:45:53.132Z,36.44
2018-08-08T00:46:36.764Z,36.64
2018-08-08T00:47:19.060Z,36.74
2018-08-08T00:48:00.272Z,36.93
2018-08-08T00:48:41.462Z,37.41
2018-08-08T00:49:22.772Z,37.61
2018-08-08T00:50:04.078Z,37.71
2018-08-08T00:50:45.402Z,36.83
2018-08-08T00:51:26.727Z,36.74
2018-08-08T00:52:08.521Z,37.41
2018-08-08T00:52:49.755Z,37.13
2018-08-08T00:53:32.020Z,37.41
2018-08-08T00:54:13.268Z,37.41
2018-08-08T00:54:54.516Z,36.93
2018-08-08T00:55:36.731Z,37.51
2018-08-08T00:56:18.044Z,37.51
2018-08-08T00:57:01.024Z,37.23
2018-08-08T00:57:43.077Z,37.23
2018-08-08T00:58:24.416Z,37.51
2018-08-08T00:59:05.638Z,37.41
2018-08-08T00:59:48.535Z,37.51
2018-08-08T01:00:29.851Z,37.41
2018-08-08T01:01:11.140Z,37.41
2018-08-08T01:01:54.005Z,37.61
2018-08-08T01:02:35.305Z,37.41
2018-08-08T01:03:17.578Z,37.61
2018-08-08T01:03:58.866Z,37.41
2018-08-08T01:04:40.766Z,37.71
2018-08-08T01:05:22.731Z,37.71
2018-08-08T01:06:04.091Z,37.9
2018-08-08T01:06:45.486Z,37.81
2018-08-08T01:07:26.762Z,38.29
2018-08-08T01:08:08.039Z,37.9
2018-08-08T01:08:49.374Z,37.81
2018-08-08T01:09:30.614Z,37.61
2018-08-08T01:10:11.933Z,37.81
2018-08-08T01:10:54.113Z,38.19
2018-08-08T01:11:35.335Z,37.9
2018-08-08T01:12:17.547Z,37.61
2018-08-08T01:13:00.471Z,37.61
2018-08-08T01:13:42.444Z,37.71
2018-08-08T01:14:23.772Z,37.71
2018-08-08T01:15:05.129Z,37.61
2018-08-08T01:15:46.412Z,37.71
2018-08-08T01:16:27.694Z,37.61
2018-08-08T01:17:08.940Z,37.71
2018-08-08T01:17:51.053Z,37.61
2018-08-08T01:18:32.363Z,37.81
2018-08-08T01:19:14.498Z,37.81
2018-08-08T01:19:55.777Z,37.71
2018-08-08T01:20:37.180Z,37.9
2018-08-08T01:21:18.580Z,37.81
2018-08-08T01:22:00.761Z,37.9
2018-08-08T01:22:42.168Z,38.29
2018-08-08T01:23:24.079Z,37.98
2018-08-08T01:24:05.411Z,37.88
2018-08-08T01:24:46.763Z,38.07
2018-08-08T01:25:28.044Z,38.17
2018-08-08T01:26:09.334Z,38.56
2018-08-08T01:26:50.618Z,38.27
2018-08-08T01:27:32.833Z,38.17
2018-08-08T01:28:15.531Z,38.17
2018-08-08T01:28:56.816Z,38.66
2018-08-08T01:29:38.118Z,38.27
2018-08-08T01:30:19.414Z,38.76
2018-08-08T01:31:00.699Z,38.66
2018-08-08T01:31:42.020Z,38.56
2018-08-08T01:32:23.369Z,38.85
2018-08-08T01:33:04.625Z,38.37
2018-08-08T01:33:45.986Z,38.85
2018-08-08T01:34:27.234Z,38.85
2018-08-08T01:35:08.462Z,38.85
2018-08-08T01:35:49.759Z,38.85
2018-08-08T01:36:31.032Z,38.56
2018-08-08T01:37:12.190Z,38.66
2018-08-08T01:37:53.494Z,38.76
2018-08-08T01:38:37.273Z,38.76
2018-08-08T01:39:18.608Z,38.66
2018-08-08T01:40:00.794Z,38.95
2018-08-08T01:40:42.094Z,39.14
2018-08-08T01:41:23.275Z,38.76
2018-08-08T01:42:04.649Z,39.04
2018-08-08T01:42:46.549Z,39.04
2018-08-08T01:43:27.923Z,38.76
2018-08-08T01:44:09.147Z,39.04
2018-08-08T01:44:51.095Z,39.43
2018-08-08T01:45:33.036Z,39.14
2018-08-08T01:46:16.056Z,38.76
2018-08-08T01:46:57.437Z,38.66
2018-08-08T01:47:38.674Z,39.14
2018-08-08T01:48:20.021Z,38.95
2018-08-08T01:49:01.307Z,39.24
2018-08-08T01:49:43.300Z,39.43
2018-08-08T01:50:24.547Z,39.14
2018-08-08T01:51:05.847Z,38.76
2018-08-08T01:51:47.061Z,38.85
2018-08-08T01:52:28.407Z,38.66
2018-08-08T01:53:09.582Z,38.95
2018-08-08T01:53:50.830Z,38.76
2018-08-08T01:54:32.113Z,38.85
2018-08-08T01:55:13.441Z,39.04
2018-08-08T01:55:56.396Z,39.14
2018-08-08T01:56:38.592Z,39.14
2018-08-08T01:57:19.820Z,38.95
2018-08-08T01:58:01.107Z,39.34
2018-08-08T01:58:43.331Z,39.24
2018-08-08T01:59:24.585Z,39.04
2018-08-08T02:00:05.929Z,39.43
2018-08-08T02:00:47.242Z,39.53
2018-08-08T02:01:28.592Z,39.14
2018-08-08T02:02:09.911Z,39.32
2018-08-08T02:02:51.189Z,39.03
2018-08-08T02:03:32.447Z,38.93
2018-08-08T02:04:14.512Z,39.03
2018-08-08T02:04:56.281Z,39.03
2018-08-08T02:05:37.546Z,38.93
2018-08-08T02:06:19.444Z,39.32
2018-08-08T02:07:00.704Z,38.93
2018-08-08T02:07:42.495Z,39.51
2018-08-08T02:08:23.750Z,39.03
2018-08-08T02:09:05.747Z,39.51
2018-08-08T02:09:46.924Z,39.41
2018-08-08T02:10:28.191Z,39.41
2018-08-08T02:11:09.477Z,39.41
2018-08-08T02:11:51.499Z,39.32
2018-08-08T02:12:32.670Z,39.32
2018-08-08T02:13:13.946Z,39.61
2018-08-08T02:13:55.189Z,39.7
2018-08-08T02:14:38.536Z,39.51
2018-08-08T02:15:19.774Z,39.32
2018-08-08T02:16:01.073Z,39.03
2018-08-08T02:16:42.343Z,39.41
2018-08-08T02:17:23.606Z,39.7
2018-08-08T02:18:04.795Z,39.22
2018-08-08T02:18:46.003Z,39.61
2018-08-08T02:19:27.248Z,39.32
2018-08-08T02:20:08.435Z,39.22
2018-08-08T02:20:50.497Z,39.32
2018-08-08T02:21:31.903Z,39.32
2018-08-08T02:22:14.564Z,39.41
2018-08-08T02:22:56.497Z,39.32
2018-08-08T02:23:37.799Z,39.7
2018-08-08T02:24:19.062Z,39.51
2018-08-08T02:25:01.098Z,39.7
2018-08-08T02:25:43.280Z,39.61
2018-08-08T02:26:26.092Z,39.8
2018-08-08T02:27:08.080Z,39.8
2018-08-08T02:27:49.301Z,39.41
2018-08-08T02:28:32.307Z,39.8
2018-08-08T02:29:13.441Z,39.8
2018-08-08T02:29:54.538Z,39.8
2018-08-08T02:30:35.822Z,39.61
2018-08-08T02:31:18.552Z,39.9
2018-08-08T02:31:59.811Z,39.7
2018-08-08T02:32:40.984Z,39.51
2018-08-08T02:33:22.265Z,39.8
2018-08-08T02:34:03.487Z,39.9
2018-08-08T02:34:44.730Z,39.9
2018-08-08T02:35:26.040Z,39.8
2018-08-08T02:36:07.338Z,39.8
2018-08-08T02:36:48.650Z,39.51
2018-08-08T02:37:29.876Z,39.7
2018-08-08T02:38:12.062Z,39.7
2018-08-08T02:38:53.234Z,39.8
2018-08-08T02:39:34.582Z,39.61
2018-08-08T02:40:15.897Z,39.61
2018-08-08T02:40:57.823Z,39.8
2018-08-08T02:41:39.071Z,39.7
2018-08-08T02:42:20.376Z,39.61
2018-08-08T02:43:02.593Z,39.7
2018-08-08T02:43:43.849Z,39.8
2018-08-08T02:44:25.041Z,39.59
2018-08-08T02:45:06.361Z,39.51
2018-08-08T02:45:47.713Z,39.61
2018-08-08T02:46:28.968Z,39.9
2018-08-08T02:47:10.816Z,39.69
2018-08-08T02:47:52.014Z,40.09
2018-08-08T02:48:33.285Z,40.09
2018-08-08T02:49:14.514Z,40.48
2018-08-08T02:49:55.822Z,40.07
2018-08-08T02:50:36.990Z,40.26
2018-08-08T02:51:18.730Z,40.09
2018-08-08T02:51:59.916Z,39.88
2018-08-08T02:52:41.279Z,39.78
2018-08-08T02:53:22.418Z,39.7
2018-08-08T02:54:04.553Z,39.69
2018-08-08T02:54:46.453Z,39.78
2018-08-08T02:55:29.140Z,39.78
2018-08-08T02:56:10.253Z,39.59
2018-08-08T02:56:51.484Z,39.78
2018-08-08T02:57:32.783Z,40.38
2018-08-08T02:58:13.898Z,39.78
2018-08-08T02:58:55.123Z,39.69
2018-08-08T02:59:36.373Z,39.78
2018-08-08T03:00:17.680Z,40.07
2018-08-08T03:00:58.912Z,40.07
2018-08-08T03:01:40.219Z,39.78
2018-08-08T03:02:21.452Z,39.69
2018-08-08T03:03:02.569Z,39.97
2018-08-08T03:03:43.751Z,40.36
2018-08-08T03:04:24.852Z,40.26
2018-08-08T03:05:06.370Z,40.36
2018-08-08T03:05:47.711Z,40.46
2018-08-08T03:06:29.783Z,40.65
2018-08-08T03:07:10.866Z,40.26
2018-08-08T03:07:52.129Z,40.56
2018-08-08T03:08:33.475Z,40.07
2018-08-08T03:09:14.543Z,40.07
2018-08-08T03:09:55.741Z,39.97
2018-08-08T03:10:37.099Z,40.36
2018-08-08T03:11:18.428Z,40.26
2018-08-08T03:11:59.635Z,40.26
2018-08-08T03:12:40.816Z,40.26
2018-08-08T03:13:22.083Z,40.36
2018-08-08T03:14:03.242Z,40.17
2018-08-08T03:14:44.398Z,40.36
2018-08-08T03:15:25.578Z,40.17
2018-08-08T03:16:06.819Z,39.88
2018-08-08T03:16:47.833Z,39.97
2018-08-08T03:17:29.075Z,40.07
2018-08-08T03:18:11.001Z,39.88
2018-08-08T03:18:52.252Z,40.17
2018-08-08T03:19:34.048Z,40.07
2018-08-08T03:20:16.026Z,40.36
2018-08-08T03:20:58.049Z,40.65
2018-08-08T03:21:39.974Z,40.36
2018-08-08T03:22:22.019Z,40.56
2018-08-08T03:23:03.234Z,40.36
2018-08-08T03:23:45.610Z,40.75
2018-08-08T03:24:26.836Z,40.56
2018-08-08T03:25:08.090Z,39.97
2018-08-08T03:25:50.261Z,40.26
2018-08-08T03:26:32.066Z,40.56
2018-08-08T03:27:13.317Z,40.75
2018-08-08T03:27:55.491Z,40.26
2018-08-08T03:28:36.776Z,40.65
2018-08-08T03:29:18.815Z,40.56
2018-08-08T03:30:00.158Z,40.84
2018-08-08T03:30:40.954Z,40.94
2018-08-08T03:31:22.243Z,40.94
2018-08-08T03:32:04.091Z,40.56
2018-08-08T03:32:46.857Z,40.56
2018-08-08T03:33:30.788Z,40.36
2018-08-08T03:34:12.150Z,40.56
2018-08-08T03:34:53.445Z,40.56
2018-08-08T03:35:34.739Z,40.75
2018-08-08T03:36:20.215Z,40.65
2018-08-08T03:37:01.362Z,39.97
2018-08-08T03:37:43.704Z,40.56
2018-08-08T03:38:26.105Z,40.73
2018-08-08T03:39:07.414Z,40.65
2018-08-08T03:39:48.758Z,40.94
2018-08-08T03:40:30.680Z,41.14
2018-08-08T03:41:12.610Z,40.94
2018-08-08T03:41:53.883Z,40.94
2018-08-08T03:42:35.241Z,40.84
2018-08-08T03:43:16.538Z,41.14
2018-08-08T03:43:58.534Z,41.31
2018-08-08T03:44:39.905Z,40.94
2018-08-08T03:45:22.113Z,40.94
2018-08-08T03:46:04.262Z,41.02
2018-08-08T03:46:45.594Z,40.84
2018-08-08T03:47:26.889Z,40.83
2018-08-08T03:48:08.077Z,41.14
2018-08-08T03:48:52.099Z,41.02
2018-08-08T03:49:33.373Z,40.94
2018-08-08T03:50:14.642Z,40.92
2018-08-08T03:50:55.974Z,40.84
2018-08-08T03:51:37.229Z,41.14
2018-08-08T03:52:18.512Z,41.04
2018-08-08T03:52:59.817Z,40.75
2018-08-08T03:53:41.095Z,41.33
2018-08-08T03:54:22.359Z,41.14
2018-08-08T03:55:03.687Z,41.02
2018-08-08T03:55:44.999Z,40.94
2018-08-08T03:56:26.319Z,41.04
2018-08-08T03:57:08.347Z,40.17
2018-08-08T03:57:50.595Z,40.94
2018-08-08T03:58:32.602Z,40.63
2018-08-08T03:59:14.631Z,41.02
2018-08-08T03:59:55.982Z,40.83
2018-08-08T04:00:37.847Z,40.73
2018-08-08T04:01:19.166Z,40.73
2018-08-08T04:02:00.453Z,41.31
2018-08-08T04:02:41.853Z,41.02
2018-08-08T04:03:22.962Z,41.33
2018-08-08T04:04:04.751Z,41.04
2018-08-08T04:04:46.040Z,40.92
2018-08-08T04:05:27.492Z,41.52
2018-08-08T04:06:08.729Z,41.52
2018-08-08T04:06:50.048Z,41.52
2018-08-08T04:07:31.531Z,41.33
2018-08-08T04:08:14.634Z,41.04
2018-08-08T04:08:56.611Z,41.11
2018-08-08T04:09:37.861Z,41.21
2018-08-08T04:10:20.088Z,41.41
2018-08-08T04:11:02.042Z,41.24
2018-08-08T04:11:43.323Z,41.41
2018-08-08T04:12:24.545Z,41.02
2018-08-08T04:13:05.924Z,41.33
2018-08-08T04:13:47.178Z,41.42
2018-08-08T04:14:28.512Z,41.31
2018-08-08T04:15:09.767Z,41.11
2018-08-08T04:15:51.650Z,41.33
2018-08-08T04:16:32.885Z,41.5
2018-08-08T04:17:14.263Z,41.11
2018-08-08T04:17:55.581Z,41.02
2018-08-08T04:18:37.681Z,41.21
2018-08-08T04:19:19.872Z,41.11
2018-08-08T04:20:01.153Z,41.62
2018-08-08T04:20:42.462Z,41.91
2018-08-08T04:21:23.721Z,42
2018-08-08T04:22:05.495Z,41.41
2018-08-08T04:22:46.739Z,41.41
2018-08-08T04:23:28.074Z,42.08
2018-08-08T04:24:09.392Z,42.08
2018-08-08T04:24:51.643Z,41.6
2018-08-08T04:25:32.946Z,41.5
2018-08-08T04:26:14.270Z,41.7
2018-08-08T04:26:56.382Z,41.62
2018-08-08T04:27:38.163Z,41.52
2018-08-08T04:28:19.496Z,41.7
2018-08-08T04:29:00.810Z,42.08
2018-08-08T04:29:42.116Z,42.18
2018-08-08T04:30:23.392Z,41.42
2018-08-08T04:31:05.686Z,41.7
2018-08-08T04:31:46.888Z,42.2
2018-08-08T04:32:28.253Z,41.72
2018-08-08T04:33:09.552Z,41.62
2018-08-08T04:33:50.851Z,41.31
2018-08-08T04:34:32.080Z,41.41
2018-08-08T04:35:13.493Z,42.08
2018-08-08T04:35:54.609Z,42.08
2018-08-08T04:36:38.678Z,41.99
2018-08-08T04:37:20.907Z,41.89
2018-08-08T04:38:02.875Z,42.08
2018-08-08T04:38:44.123Z,42.18
2018-08-08T04:39:26.349Z,41.99
2018-08-08T04:40:07.681Z,41.99
2018-08-08T04:40:49.078Z,41.99
2018-08-08T04:41:30.332Z,42.18
2018-08-08T04:42:11.595Z,42.47
2018-08-08T04:42:52.984Z,42.66
2018-08-08T04:43:34.274Z,42.57
2018-08-08T04:44:15.489Z,42.96
2018-08-08T04:44:56.732Z,42.66
2018-08-08T04:45:37.999Z,42.47
2018-08-08T04:46:19.187Z,42.66
2018-08-08T04:47:00.511Z,42.66
2018-08-08T04:47:42.609Z,42.66
2018-08-08T04:48:23.916Z,42.66
2018-08-08T04:49:05.818Z,42.47
2018-08-08T04:49:47.084Z,42.66
2018-08-08T04:50:30.399Z,42.76
2018-08-08T04:51:11.705Z,43.63
2018-08-08T04:51:53.635Z,43.15
2018-08-08T04:52:35.658Z,42.86
2018-08-08T04:53:16.987Z,43.24
2018-08-08T04:53:58.245Z,43.15
2018-08-08T04:54:39.576Z,43.15
2018-08-08T04:55:20.951Z,43.54
2018-08-08T04:56:02.293Z,42.96
2018-08-08T04:56:43.847Z,43.24
2018-08-08T04:57:25.925Z,43.15
2018-08-08T04:58:07.213Z,42.96
2018-08-08T04:58:48.520Z,43.63
2018-08-08T04:59:30.629Z,43.24
2018-08-08T05:00:14.138Z,43.34
2018-08-08T05:00:55.380Z,42.96
2018-08-08T05:01:36.571Z,42.86
2018-08-08T05:02:17.899Z,43.34
2018-08-08T05:02:59.239Z,42.96
2018-08-08T05:03:40.471Z,42.96
2018-08-08T05:04:22.348Z,43.05
2018-08-08T05:05:03.725Z,43.44
2018-08-08T05:05:45.109Z,43.44
2018-08-08T05:06:26.400Z,43.82
2018-08-08T05:07:07.608Z,43.34
2018-08-08T05:07:48.930Z,43.34
2018-08-08T05:08:30.171Z,43.73
2018-08-08T05:09:12.124Z,44.02
2018-08-08T05:09:53.489Z,43.63
2018-08-08T05:10:34.866Z,43.54
2018-08-08T05:11:16.602Z,43.54
2018-08-08T05:11:58.347Z,43.63
2018-08-08T05:12:41.138Z,43.92
2018-08-08T05:13:23.093Z,43.82
2018-08-08T05:14:04.397Z,43.73
2018-08-08T05:14:45.763Z,43.73
2018-08-08T05:15:27.628Z,43.63
2018-08-08T05:16:08.959Z,43.54
2018-08-08T05:16:51.146Z,43.63
2018-08-08T05:17:32.338Z,43.63
2018-08-08T05:18:14.184Z,43.34
2018-08-08T05:18:55.359Z,43.34
2018-08-08T05:19:37.171Z,43.54
2018-08-08T05:20:18.421Z,43.63
2018-08-08T05:20:59.581Z,43.92
2018-08-08T05:21:40.829Z,43.82
2018-08-08T05:22:22.174Z,44.23
2018-08-08T05:23:03.517Z,44.21
2018-08-08T05:23:44.827Z,43.65
2018-08-08T05:24:26.670Z,44.12
2018-08-08T05:25:08.843Z,43.65
2018-08-08T05:25:50.153Z,43.55
2018-08-08T05:26:31.534Z,43.75
2018-08-08T05:27:13.656Z,43.82
2018-08-08T05:27:55.388Z,44.23
2018-08-08T05:28:36.552Z,44.43
2018-08-08T05:29:18.662Z,44.53
2018-08-08T05:29:59.939Z,44.04
2018-08-08T05:30:41.275Z,44.13
2018-08-08T05:31:22.739Z,44.04
2018-08-08T05:32:04.657Z,44.43
2018-08-08T05:32:46.584Z,44.23
2018-08-08T05:33:27.847Z,44.33
2018-08-08T05:34:09.859Z,44.62
2018-08-08T05:34:51.198Z,44.23
2018-08-08T05:35:34.422Z,43.95
2018-08-08T05:36:16.141Z,43.75
2018-08-08T05:36:57.362Z,43.85
2018-08-08T05:37:38.629Z,43.85
2018-08-08T05:38:19.961Z,43.75
2018-08-08T05:39:01.153Z,44.33
2018-08-08T05:39:42.375Z,43.75
2018-08-08T05:40:23.633Z,43.85
2018-08-08T05:41:04.845Z,44.13
2018-08-08T05:41:46.187Z,44.43
2018-08-08T05:42:29.411Z,44.04
2018-08-08T05:43:11.900Z,44.33
2018-08-08T05:43:54.223Z,43.95
2018-08-08T05:44:36.381Z,44.13
2018-08-08T05:45:18.602Z,44.16
2018-08-08T05:45:59.984Z,43.77
2018-08-08T05:46:41.256Z,43.87
2018-08-08T05:47:22.538Z,44.06
2018-08-08T05:48:03.665Z,44.35
2018-08-08T05:48:45.645Z,43.87
2018-08-08T05:49:27.009Z,43.48
2018-08-08T05:50:08.316Z,43.96
2018-08-08T05:50:49.507Z,44.54
2018-08-08T05:51:30.595Z,44.64
2018-08-08T05:52:11.820Z,43.79
2018-08-08T05:52:54.650Z,43.7
2018-08-08T05:53:36.664Z,43.41
2018-08-08T05:54:17.936Z,42.54
2018-08-08T05:55:00.181Z,42.14
2018-08-08T05:55:42.200Z,42.65
2018-08-08T05:56:23.464Z,42.26
2018-08-08T05:57:04.778Z,41.88
2018-08-08T05:57:46.666Z,41.49
2018-08-08T05:58:27.937Z,41.49
2018-08-08T05:59:09.324Z,41
2018-08-08T05:59:51.182Z,41.22
2018-08-08T06:00:32.582Z,41.68
2018-08-08T06:01:14.411Z,41.02
2018-08-08T06:01:55.735Z,41.02
2018-08-08T06:02:37.143Z,41.61
2018-08-08T06:03:18.462Z,40.64
2018-08-08T06:03:59.721Z,40.46
2018-08-08T06:04:41.059Z,40.17
2018-08-08T06:05:22.257Z,40.46
2018-08-08T06:06:03.468Z,40.36
2018-08-08T06:06:44.672Z,40.08
2018-08-08T06:07:27.473Z,40.08
2018-08-08T06:08:08.763Z,39.88
2018-08-08T06:08:50.017Z,39.88
2018-08-08T06:09:31.363Z,39.49
2018-08-08T06:10:12.710Z,39.39
2018-08-08T06:10:55.027Z,39.8
2018-08-08T06:11:36.250Z,39.51
2018-08-08T06:12:17.442Z,39.9
2018-08-08T06:12:59.652Z,39.41
2018-08-08T06:13:40.884Z,39.8
2018-08-08T06:14:22.206Z,40.29
2018-08-08T06:15:04.166Z,39.72
2018-08-08T06:15:45.291Z,39.72
2018-08-08T06:16:26.529Z,39.14
2018-08-08T06:17:07.704Z,39.04
2018-08-08T06:17:48.978Z,39.72
2018-08-08T06:18:30.394Z,40.13
2018-08-08T06:19:12.556Z,40.23
2018-08-08T06:19:54.107Z,39.94
2018-08-08T06:20:35.403Z,39.94
2018-08-08T06:21:16.738Z,38.98
2018-08-08T06:21:58.998Z,38.21
2018-08-08T06:22:40.425Z,38.29
2018-08-08T06:23:21.764Z,38.5
2018-08-08T06:24:04.655Z,37.7
2018-08-08T06:24:45.929Z,38.29
2018-08-08T06:25:27.097Z,38.96
2018-08-08T06:26:08.376Z,38.5
2018-08-08T06:26:49.676Z,38.7
2018-08-08T06:27:31.757Z,37.72
2018-08-08T06:28:13.937Z,37.84
2018-08-08T06:28:56.201Z,37.04
2018-08-08T06:29:38.394Z,36.16
2018-08-08T06:30:19.654Z,36.46
2018-08-08T06:31:00.971Z,37.14
2018-08-08T06:31:42.291Z,37.52
2018-08-08T06:32:23.589Z,37.82
2018-08-08T06:33:04.807Z,37.82
2018-08-08T06:33:46.131Z,37.92
2018-08-08T06:34:27.479Z,38.09
2018-08-08T06:35:08.815Z,38.39
2018-08-08T06:35:50.067Z,38.87
2018-08-08T06:36:31.278Z,38.5
2018-08-08T06:37:12.550Z,38.7
2018-08-08T06:37:53.734Z,38.31
2018-08-08T06:38:34.969Z,38.13
2018-08-08T06:39:17.681Z,38.32
2018-08-08T06:39:59.027Z,38.03
2018-08-08T06:40:41.156Z,38.71
2018-08-08T06:41:22.424Z,37.46
2018-08-08T06:42:04.636Z,36.59
2018-08-08T06:42:45.914Z,37.08
2018-08-08T06:43:29.217Z,36.49
2018-08-08T06:44:10.448Z,36.59
2018-08-08T06:44:51.695Z,36.77
2018-08-08T06:45:33.644Z,36.96
2018-08-08T06:46:14.912Z,37.64
2018-08-08T06:46:58.570Z,37.26
2018-08-08T06:47:39.835Z,37.76
2018-08-08T06:48:21.768Z,37.95
2018-08-08T06:49:03.182Z,36.59
2018-08-08T06:49:44.479Z,36.59
2018-08-08T06:50:25.834Z,36.32
2018-08-08T06:51:06.957Z,35.93
2018-08-08T06:51:48.228Z,35.83
2018-08-08T06:52:30.402Z,36.32
2018-08-08T06:53:11.679Z,36.92
2018-08-08T06:53:53.014Z,36.33
2018-08-08T06:54:35.049Z,35.75
2018-08-08T06:55:17.076Z,36.72
2018-08-08T06:55:59.242Z,35.67
2018-08-08T06:56:40.646Z,36.06
2018-08-08T06:57:21.870Z,35.47
2018-08-08T06:58:03.180Z,34.89
2018-08-08T06:58:44.485Z,34.5
2018-08-08T06:59:25.841Z,35.28
2018-08-08T07:00:07.133Z,34.99
2018-08-08T07:00:48.552Z,35.28
2018-08-08T07:01:30.487Z,36.86
2018-08-08T07:02:11.857Z,37.83
2018-08-08T07:02:54.460Z,37.73
2018-08-08T07:03:35.744Z,37.05
2018-08-08T07:04:17.133Z,36.49
2018-08-08T07:04:58.473Z,36.29
2018-08-08T07:05:39.755Z,35.51
2018-08-08T07:06:22.028Z,35.8
2018-08-08T07:07:04.259Z,35.61
2018-08-08T07:07:45.536Z,35.33
2018-08-08T07:08:26.848Z,34.26
2018-08-08T07:09:07.957Z,35.33
2018-08-08T07:09:51.016Z,36.11
2018-08-08T07:10:32.267Z,35.14
2018-08-08T07:11:13.556Z,35.14
2018-08-08T07:11:54.802Z,33.97
2018-08-08T07:12:36.698Z,33.98
2018-08-08T07:13:17.961Z,33.69
2018-08-08T07:13:59.208Z,33.59
2018-08-08T07:14:41.215Z,32.71
2018-08-08T07:15:22.517Z,33.01
2018-08-08T07:16:03.772Z,33.11
2018-08-08T07:16:46.873Z,33.98
2018-08-08T07:17:29.159Z,33.5
2018-08-08T07:18:11.458Z,33.11
2018-08-08T07:18:53.995Z,32.81
2018-08-08T07:19:34.822Z,33.01
2018-08-08T07:20:17.774Z,33.59
2018-08-08T07:20:59.070Z,32.71
2018-08-08T07:21:40.492Z,32.23
2018-08-08T07:22:21.835Z,33.59
2018-08-08T07:23:02.997Z,32.81
2018-08-08T07:23:44.302Z,32.71
2018-08-08T07:24:25.631Z,33.11
2018-08-08T07:25:06.913Z,32.81
2018-08-08T07:25:48.105Z,32.71
2018-08-08T07:26:29.366Z,32.32
2018-08-08T07:27:10.581Z,33.59
2018-08-08T07:27:51.805Z,33.7
2018-08-08T07:28:33.989Z,33.31
2018-08-08T07:29:15.252Z,34.09
2018-08-08T07:29:56.499Z,34.58
2018-08-08T07:30:39.479Z,34.09
2018-08-08T07:31:20.738Z,34.01
2018-08-08T07:32:01.961Z,33.14
2018-08-08T07:32:43.212Z,32.45
2018-08-08T07:33:24.585Z,31.77
2018-08-08T07:34:06.738Z,31.77
2018-08-08T07:34:48.102Z,31.96
2018-08-08T07:35:29.335Z,31.96
2018-08-08T07:36:10.584Z,33.23
2018-08-08T07:36:51.703Z,33.62
2018-08-08T07:37:32.908Z,33.45
2018-08-08T07:38:14.268Z,34.03
2018-08-08T07:38:55.590Z,32.66
2018-08-08T07:39:36.790Z,31.78
2018-08-08T07:40:18.791Z,31.68
2018-08-08T07:41:00.694Z,32.37
2018-08-08T07:41:41.896Z,31.2
2018-08-08T07:42:23.710Z,31.39
2018-08-08T07:43:04.995Z,31.68
2018-08-08T07:43:46.303Z,31.98
2018-08-08T07:44:27.602Z,32.37
2018-08-08T07:45:08.930Z,32.87
2018-08-08T07:45:50.167Z,33.36
2018-08-08T07:46:31.533Z,32.87
2018-08-08T07:47:12.788Z,32.78
2018-08-08T07:47:55.203Z,31.7
2018-08-08T07:48:36.521Z,32.87
2018-08-08T07:49:17.739Z,32.29
2018-08-08T07:49:59.491Z,31.32
2018-08-08T07:50:40.877Z,32.7
2018-08-08T07:51:22.044Z,32.79
2018-08-08T07:52:03.283Z,32.1
2018-08-08T07:52:44.601Z,30.93
2018-08-08T07:53:25.982Z,31.23
2018-08-08T07:54:07.274Z,31.13
2018-08-08T07:54:50.260Z,31.13
2018-08-08T07:55:31.556Z,31.32
2018-08-08T07:56:12.860Z,32.7
2018-08-08T07:56:54.083Z,32.7
2018-08-08T07:57:35.411Z,33.09
2018-08-08T07:58:16.658Z,32.7
2018-08-08T07:58:57.764Z,32.1
2018-08-08T07:59:39.679Z,30.93
2018-08-08T08:00:20.901Z,30.74
2018-08-08T08:01:02.196Z,30.44
2018-08-08T08:01:43.549Z,30.44
2018-08-08T08:02:24.859Z,30.64
2018-08-08T08:03:06.106Z,30.25
2018-08-08T08:03:47.395Z,31.13
2018-08-08T08:04:29.063Z,30.93
2018-08-08T08:05:10.464Z,30.93
2018-08-08T08:05:51.839Z,31.03
2018-08-08T08:06:33.672Z,31.41
2018-08-08T08:07:14.946Z,31.32
2018-08-08T08:07:57.127Z,30.74
2018-08-08T08:08:38.956Z,30.64
2018-08-08T08:09:20.271Z,31.62
2018-08-08T08:10:02.590Z,32.01
2018-08-08T08:10:45.253Z,30.93
2018-08-08T08:11:26.660Z,30.83
2018-08-08T08:12:08.500Z,32.6
2018-08-08T08:12:49.902Z,30.74
2018-08-08T08:13:31.790Z,30.83
2018-08-08T08:14:13.054Z,31.23
2018-08-08T08:14:54.355Z,30.74
2018-08-08T08:15:37.734Z,30.83
2018-08-08T08:16:19.026Z,31.23
2018-08-08T08:17:00.370Z,31.52
2018-08-08T08:17:42.226Z,31.13
2018-08-08T08:18:24.219Z,30.74
2018-08-08T08:19:06.262Z,31.23
2018-08-08T08:19:48.444Z,31.13
2018-08-08T08:20:29.964Z,31.91
2018-08-08T08:21:11.118Z,30.93
2018-08-08T08:21:52.251Z,30.91
2018-08-08T08:22:33.312Z,31.31
2018-08-08T08:23:14.525Z,31.71
2018-08-08T08:23:55.482Z,31.32
2018-08-08T08:24:36.555Z,31.71
2018-08-08T08:25:18.685Z,31.62
2018-08-08T08:25:59.960Z,32.6
2018-08-08T08:26:40.994Z,31.91
2018-08-08T08:27:23.025Z,33.18
2018-08-08T08:28:04.167Z,34.36
2018-08-08T08:28:45.296Z,32.99
2018-08-08T08:29:26.311Z,33.09
2018-08-08T08:30:10.179Z,33.67
2018-08-08T08:30:51.218Z,32.03
2018-08-08T08:31:32.450Z,32.71
2018-08-08T08:32:13.671Z,33.59
2018-08-08T08:32:54.670Z,32.12
2018-08-08T08:33:35.777Z,31.63
2018-08-08T08:34:17.069Z,31.54
2018-08-08T08:34:58.230Z,31.54
2018-08-08T08:35:40.155Z,31.83
2018-08-08T08:36:21.384Z,31.83
2018-08-08T08:37:02.362Z,31.24
2018-08-08T08:37:43.557Z,30.85
2018-08-08T08:38:25.547Z,31.14
2018-08-08T08:39:06.694Z,31.34
2018-08-08T08:39:48.510Z,31.04
2018-08-08T08:40:30.235Z,31.34
2018-08-08T08:41:11.255Z,33.1
2018-08-08T08:41:52.381Z,32.12
2018-08-08T08:42:33.369Z,31.93
2018-08-08T08:43:14.627Z,33.9
2018-08-08T08:43:56.472Z,34.3
2018-08-08T08:44:37.583Z,33.98
2018-08-08T08:45:18.788Z,31.94
2018-08-08T08:46:00.732Z,31.83
2018-08-08T08:46:41.923Z,31.44
2018-08-08T08:47:23.834Z,31.34
2018-08-08T08:48:04.921Z,30.77
2018-08-08T08:48:45.959Z,31.06
2018-08-08T08:49:27.174Z,30.46
2018-08-08T08:50:09.058Z,31.14
2018-08-08T08:50:50.128Z,31.04
2018-08-08T08:51:31.361Z,31.73
2018-08-08T08:52:14.037Z,32.73
2018-08-08T08:52:56.301Z,32.73
2018-08-08T08:53:37.504Z,31.24
2018-08-08T08:54:18.796Z,30.75
2018-08-08T08:55:00.710Z,30.16
2018-08-08T08:55:41.813Z,30.26
2018-08-08T08:56:22.914Z,30.75
2018-08-08T08:57:04.043Z,31.44